sensor_id;sensor_type;location;lat;lon;timestamp;P1;durP1;ratioP1;P2;durP2;ratioP2
53598;SDS011;39485;45.702;11.364;2022-12-01T00:02:12;0.40;;;0.40;;
53598;SDS011;39485;45.702;11.364;2022-12-01T00:04:38;0.03;;;0.03;;
53598;SDS011;39485;45.702;11.364;2022-12-01T00:07:03;3.65;;;1.25;;
53598;SDS011;39485;45.702;11.364;2022-12-01T00:09:29;0.23;;;0.23;;
53598;SDS011;39485;45.702;11.364;2022-12-01T00:12:13;0.40;;;0.40;;
53598;SDS011;39485;45.702;11.364;2022-12-01T00:14:39;0.10;;;0.10;;
53598;SDS011;39485;45.702;11.364;2022-12-01T00:17:05;3.77;;;0.77;;
53598;SDS011;39485;45.702;11.364;2022-12-01T00:19:30;0.80;;;0.73;;
53598;SDS011;39485;45.702;11.364;2022-12-01T00:21:56;0.93;;;0.93;;
53598;SDS011;39485;45.702;11.364;2022-12-01T00:24:22;1.40;;;1.30;;
53598;SDS011;39485;45.702;11.364;2022-12-01T00:26:48;0.73;;;0.57;;
53598;SDS011;39485;45.702;11.364;2022-12-01T00:29:14;0.83;;;0.83;;
53598;SDS011;39485;45.702;11.364;2022-12-01T00:31:40;0.77;;;0.70;;
53598;SDS011;39485;45.702;11.364;2022-12-01T00:34:06;0.90;;;0.90;;
53598;SDS011;39485;45.702;11.364;2022-12-01T00:36:36;0.60;;;0.60;;
53598;SDS011;39485;45.702;11.364;2022-12-01T00:39:02;0.40;;;0.40;;
53598;SDS011;39485;45.702;11.364;2022-12-01T00:41:28;0.67;;;0.67;;
53598;SDS011;39485;45.702;11.364;2022-12-01T00:43:54;0.53;;;0.53;;
53598;SDS011;39485;45.702;11.364;2022-12-01T00:46:19;0.67;;;0.67;;
53598;SDS011;39485;45.702;11.364;2022-12-01T00:48:45;0.70;;;0.70;;
53598;SDS011;39485;45.702;11.364;2022-12-01T00:51:11;0.83;;;0.83;;
53598;SDS011;39485;45.702;11.364;2022-12-01T00:53:37;1.23;;;0.30;;
53598;SDS011;39485;45.702;11.364;2022-12-01T00:56:02;0.67;;;0.67;;
53598;SDS011;39485;45.702;11.364;2022-12-01T00:58:28;0.40;;;0.40;;
53598;SDS011;39485;45.702;11.364;2022-12-01T01:00:57;0.23;;;0.23;;
53598;SDS011;39485;45.702;11.364;2022-12-01T01:03:25;0.73;;;0.73;;
53598;SDS011;39485;45.702;11.364;2022-12-01T01:05:51;0.27;;;0.27;;
53598;SDS011;39485;45.702;11.364;2022-12-01T01:08:17;0.63;;;0.63;;
53598;SDS011;39485;45.702;11.364;2022-12-01T01:10:44;1.10;;;0.93;;
53598;SDS011;39485;45.702;11.364;2022-12-01T01:13:11;3.40;;;1.67;;
53598;SDS011;39485;45.702;11.364;2022-12-01T01:15:38;1.20;;;1.10;;
53598;SDS011;39485;45.702;11.364;2022-12-01T01:18:04;0.20;;;0.20;;
53598;SDS011;39485;45.702;11.364;2022-12-01T01:20:31;0.53;;;0.53;;
53598;SDS011;39485;45.702;11.364;2022-12-01T01:22:58;0.57;;;0.57;;
53598;SDS011;39485;45.702;11.364;2022-12-01T01:25:23;0.30;;;0.30;;
53598;SDS011;39485;45.702;11.364;2022-12-01T01:27:49;0.97;;;0.67;;
53598;SDS011;39485;45.702;11.364;2022-12-01T01:30:16;0.53;;;0.50;;
53598;SDS011;39485;45.702;11.364;2022-12-01T01:32:42;1.50;;;1.40;;
53598;SDS011;39485;45.702;11.364;2022-12-01T01:35:07;0.57;;;0.57;;
53598;SDS011;39485;45.702;11.364;2022-12-01T01:37:33;0.20;;;0.20;;
53598;SDS011;39485;45.702;11.364;2022-12-01T01:39:59;0.60;;;0.60;;
53598;SDS011;39485;45.702;11.364;2022-12-01T01:42:25;0.65;;;0.65;;
53598;SDS011;39485;45.702;11.364;2022-12-01T01:44:54;0.23;;;0.23;;
53598;SDS011;39485;45.702;11.364;2022-12-01T01:50:02;0.20;;;0.20;;
53598;SDS011;39485;45.702;11.364;2022-12-01T01:52:37;2.10;;;0.85;;
53598;SDS011;39485;45.702;11.364;2022-12-01T01:55:09;0.23;;;0.23;;
53598;SDS011;39485;45.702;11.364;2022-12-01T01:57:35;0.20;;;0.20;;
53598;SDS011;39485;45.702;11.364;2022-12-01T02:00:13;0.43;;;0.43;;
53598;SDS011;39485;45.702;11.364;2022-12-01T02:02:41;0.47;;;0.47;;
53598;SDS011;39485;45.702;11.364;2022-12-01T02:05:13;0.67;;;0.67;;
53598;SDS011;39485;45.702;11.364;2022-12-01T02:07:49;1.30;;;0.70;;
53598;SDS011;39485;45.702;11.364;2022-12-01T02:10:17;0.53;;;0.47;;
53598;SDS011;39485;45.702;11.364;2022-12-01T08:24:57;0.50;;;0.50;;
53598;SDS011;39485;45.702;11.364;2022-12-01T08:27:23;0.25;;;0.25;;
53598;SDS011;39485;45.702;11.364;2022-12-01T08:29:48;0.55;;;0.55;;
53598;SDS011;39485;45.702;11.364;2022-12-01T08:32:15;0.98;;;0.43;;
53598;SDS011;39485;45.702;11.364;2022-12-01T08:34:41;0.35;;;0.35;;
53598;SDS011;39485;45.702;11.364;2022-12-01T08:37:07;0.20;;;0.20;;
53598;SDS011;39485;45.702;11.364;2022-12-01T08:39:33;0.10;;;0.10;;
53598;SDS011;39485;45.702;11.364;2022-12-01T08:41:58;3.30;;;0.43;;
53598;SDS011;39485;45.702;11.364;2022-12-01T08:44:24;0.28;;;0.28;;
53598;SDS011;39485;45.702;11.364;2022-12-01T08:46:50;0.20;;;0.20;;
53598;SDS011;39485;45.702;11.364;2022-12-01T08:49:15;0.30;;;0.30;;
53598;SDS011;39485;45.702;11.364;2022-12-01T08:51:41;0.38;;;0.38;;
53598;SDS011;39485;45.702;11.364;2022-12-01T08:54:08;0.82;;;0.20;;
53598;SDS011;39485;45.702;11.364;2022-12-01T08:56:36;0.15;;;0.13;;
53598;SDS011;39485;45.702;11.364;2022-12-01T08:59:04;0.30;;;0.30;;
53598;SDS011;39485;45.702;11.364;2022-12-01T09:01:31;0.10;;;0.10;;
53598;SDS011;39485;45.702;11.364;2022-12-01T09:03:57;0.03;;;0.03;;
53598;SDS011;39485;45.702;11.364;2022-12-01T09:06:42;0.20;;;0.20;;
53598;SDS011;39485;45.702;11.364;2022-12-01T09:09:10;0.05;;;0.05;;
53598;SDS011;39485;45.702;11.364;2022-12-01T09:11:38;0.55;;;0.55;;
53598;SDS011;39485;45.702;11.364;2022-12-01T09:14:04;3.13;;;0.40;;
53598;SDS011;39485;45.702;11.364;2022-12-01T09:16:30;0.22;;;0.22;;
53598;SDS011;39485;45.702;11.364;2022-12-01T09:18:57;0.57;;;0.35;;
53598;SDS011;39485;45.702;11.364;2022-12-01T09:21:24;0.90;;;0.90;;
53598;SDS011;39485;45.702;11.364;2022-12-01T09:23:52;0.28;;;0.28;;
53598;SDS011;39485;45.702;11.364;2022-12-01T09:26:18;0.20;;;0.20;;
53598;SDS011;39485;45.702;11.364;2022-12-01T09:28:44;0.10;;;0.10;;
53598;SDS011;39485;45.702;11.364;2022-12-01T09:31:11;0.70;;;0.70;;
53598;SDS011;39485;45.702;11.364;2022-12-01T09:33:38;0.17;;;0.17;;
53598;SDS011;39485;45.702;11.364;2022-12-01T09:36:04;0.32;;;0.32;;
53598;SDS011;39485;45.702;11.364;2022-12-01T09:38:31;0.38;;;0.38;;
53598;SDS011;39485;45.702;11.364;2022-12-01T09:40:58;0.20;;;0.20;;
53598;SDS011;39485;45.702;11.364;2022-12-01T09:43:32;0.20;;;0.20;;
53598;SDS011;39485;45.702;11.364;2022-12-01T09:46:11;0.45;;;0.22;;
53598;SDS011;39485;45.702;11.364;2022-12-01T09:48:43;0.10;;;0.10;;
53598;SDS011;39485;45.702;11.364;2022-12-01T09:51:16;0.68;;;0.68;;
53598;SDS011;39485;45.702;11.364;2022-12-01T09:53:44;0.80;;;0.65;;
53598;SDS011;39485;45.702;11.364;2022-12-01T09:56:24;0.35;;;0.35;;
53598;SDS011;39485;45.702;11.364;2022-12-01T09:58:58;0.22;;;0.22;;
53598;SDS011;39485;45.702;11.364;2022-12-01T10:01:36;0.40;;;0.40;;
53598;SDS011;39485;45.702;11.364;2022-12-01T10:04:08;0.30;;;0.30;;
53598;SDS011;39485;45.702;11.364;2022-12-01T10:06:40;0.13;;;0.13;;
53598;SDS011;39485;45.702;11.364;2022-12-01T10:11:42;0.10;;;0.10;;
53598;SDS011;39485;45.702;11.364;2022-12-01T10:14:14;0.45;;;0.45;;
53598;SDS011;39485;45.702;11.364;2022-12-01T10:19:57;0.20;;;0.20;;
53598;SDS011;39485;45.702;11.364;2022-12-01T10:30:17;0.35;;;0.35;;
53598;SDS011;39485;45.702;11.364;2022-12-01T10:35:21;0.28;;;0.28;;
53598;SDS011;39485;45.702;11.364;2022-12-01T10:37:54;0.32;;;0.32;;
53598;SDS011;39485;45.702;11.364;2022-12-01T10:40:22;0.38;;;0.38;;
53598;SDS011;39485;45.702;11.364;2022-12-01T10:42:50;0.50;;;0.50;;
53598;SDS011;39485;45.702;11.364;2022-12-01T10:45:22;0.20;;;0.20;;
53598;SDS011;39485;45.702;11.364;2022-12-01T10:48:05;0.10;;;0.10;;
53598;SDS011;39485;45.702;11.364;2022-12-01T10:50:34;0.10;;;0.10;;
53598;SDS011;39485;45.702;11.364;2022-12-01T10:53:01;0.35;;;0.35;;
53598;SDS011;39485;45.702;11.364;2022-12-01T10:55:29;0.38;;;0.38;;
53598;SDS011;39485;45.702;11.364;2022-12-01T10:57:59;0.03;;;0.03;;
53598;SDS011;39485;45.702;11.364;2022-12-01T11:00:33;0.20;;;0.20;;
53598;SDS011;39485;45.702;11.364;2022-12-01T11:03:03;0.10;;;0.10;;
53598;SDS011;39485;45.702;11.364;2022-12-01T11:05:37;0.50;;;0.50;;
53598;SDS011;39485;45.702;11.364;2022-12-01T11:08:05;0.30;;;0.30;;
53598;SDS011;39485;45.702;11.364;2022-12-01T11:10:46;0.08;;;0.08;;
53598;SDS011;39485;45.702;11.364;2022-12-01T11:13:20;0.10;;;0.10;;
53598;SDS011;39485;45.702;11.364;2022-12-01T11:15:58;0.00;;;0.00;;
53598;SDS011;39485;45.702;11.364;2022-12-01T11:21:13;0.10;;;0.10;;
53598;SDS011;39485;45.702;11.364;2022-12-01T11:23:50;1.00;;;0.30;;
53598;SDS011;39485;45.702;11.364;2022-12-01T11:28:53;0.10;;;0.10;;
53598;SDS011;39485;45.702;11.364;2022-12-01T11:31:45;0.25;;;0.25;;
53598;SDS011;39485;45.702;11.364;2022-12-01T11:34:24;0.10;;;0.10;;
53598;SDS011;39485;45.702;11.364;2022-12-01T11:36:53;0.10;;;0.10;;
53598;SDS011;39485;45.702;11.364;2022-12-01T11:41:54;0.10;;;0.10;;
53598;SDS011;39485;45.702;11.364;2022-12-01T11:44:21;0.75;;;0.43;;
53598;SDS011;39485;45.702;11.364;2022-12-01T11:46:48;0.10;;;0.10;;
53598;SDS011;39485;45.702;11.364;2022-12-01T11:49:18;0.20;;;0.20;;
53598;SDS011;39485;45.702;11.364;2022-12-01T11:51:47;0.10;;;0.10;;
53598;SDS011;39485;45.702;11.364;2022-12-01T11:54:17;0.10;;;0.10;;
53598;SDS011;39485;45.702;11.364;2022-12-01T11:56:47;0.20;;;0.20;;
53598;SDS011;39485;45.702;11.364;2022-12-01T11:59:17;0.30;;;0.30;;
53598;SDS011;39485;45.702;11.364;2022-12-01T12:05:07;0.03;;;0.03;;
53598;SDS011;39485;45.702;11.364;2022-12-01T12:13:19;0.10;;;0.10;;
53598;SDS011;39485;45.702;11.364;2022-12-01T12:22:14;0.10;;;0.10;;
53598;SDS011;39485;45.702;11.364;2022-12-01T12:24:34;1.92;;;0.32;;
53598;SDS011;39485;45.702;11.364;2022-12-01T12:27:42;0.10;;;0.10;;
53598;SDS011;39485;45.702;11.364;2022-12-01T12:30:22;0.70;;;0.28;;
53598;SDS011;39485;45.702;11.364;2022-12-01T12:41:09;0.10;;;0.10;;
53598;SDS011;39485;45.702;11.364;2022-12-01T12:46:28;6.55;;;0.85;;
53598;SDS011;39485;45.702;11.364;2022-12-01T12:49:16;0.00;;;0.00;;
53598;SDS011;39485;45.702;11.364;2022-12-01T12:52:10;0.22;;;0.22;;
53598;SDS011;39485;45.702;11.364;2022-12-01T12:54:52;0.10;;;0.10;;
53598;SDS011;39485;45.702;11.364;2022-12-01T12:59:52;0.20;;;0.20;;
53598;SDS011;39485;45.702;11.364;2022-12-01T13:05:24;0.85;;;0.85;;
53598;SDS011;39485;45.702;11.364;2022-12-01T13:08:19;0.10;;;0.10;;
53598;SDS011;39485;45.702;11.364;2022-12-01T13:16:33;0.10;;;0.10;;
53598;SDS011;39485;45.702;11.364;2022-12-01T13:19:47;0.30;;;0.30;;
53598;SDS011;39485;45.702;11.364;2022-12-01T13:21:52;0.10;;;0.10;;
53598;SDS011;39485;45.702;11.364;2022-12-01T13:24:21;0.10;;;0.10;;
53598;SDS011;39485;45.702;11.364;2022-12-01T13:26:50;0.17;;;0.17;;
53598;SDS011;39485;45.702;11.364;2022-12-01T13:29:22;0.30;;;0.30;;
53598;SDS011;39485;45.702;11.364;2022-12-01T13:31:50;0.10;;;0.10;;
53598;SDS011;39485;45.702;11.364;2022-12-01T13:34:24;0.10;;;0.10;;
53598;SDS011;39485;45.702;11.364;2022-12-01T13:36:56;0.10;;;0.10;;
53598;SDS011;39485;45.702;11.364;2022-12-01T13:39:23;0.45;;;0.45;;
53598;SDS011;39485;45.702;11.364;2022-12-01T14:18:05;0.10;;;0.10;;
53598;SDS011;39485;45.702;11.364;2022-12-01T14:20:43;0.40;;;0.40;;
53598;SDS011;39485;45.702;11.364;2022-12-01T14:23:26;0.10;;;0.10;;
53598;SDS011;39485;45.702;11.364;2022-12-01T14:29:05;0.20;;;0.20;;
53598;SDS011;39485;45.702;11.364;2022-12-01T14:34:17;0.20;;;0.20;;
53598;SDS011;39485;45.702;11.364;2022-12-01T14:36:50;0.10;;;0.10;;
53598;SDS011;39485;45.702;11.364;2022-12-01T14:39:26;0.10;;;0.10;;
53598;SDS011;39485;45.702;11.364;2022-12-01T14:44:32;0.10;;;0.10;;
53598;SDS011;39485;45.702;11.364;2022-12-01T14:55:00;0.10;;;0.10;;
53598;SDS011;39485;45.702;11.364;2022-12-01T14:57:35;0.00;;;0.00;;
53598;SDS011;39485;45.702;11.364;2022-12-01T15:00:05;0.20;;;0.20;;
53598;SDS011;39485;45.702;11.364;2022-12-01T15:02:31;0.00;;;0.00;;
53598;SDS011;39485;45.702;11.364;2022-12-01T15:05:17;0.20;;;0.20;;
53598;SDS011;39485;45.702;11.364;2022-12-01T15:07:47;0.20;;;0.10;;
53598;SDS011;39485;45.702;11.364;2022-12-01T15:10:21;0.30;;;0.30;;
53598;SDS011;39485;45.702;11.364;2022-12-01T15:12:53;0.10;;;0.10;;
53598;SDS011;39485;45.702;11.364;2022-12-01T15:15:23;0.75;;;0.47;;
53598;SDS011;39485;45.702;11.364;2022-12-01T15:17:51;1.00;;;0.20;;
53598;SDS011;39485;45.702;11.364;2022-12-01T15:22:58;0.10;;;0.10;;
53598;SDS011;39485;45.702;11.364;2022-12-01T15:25:29;0.20;;;0.20;;
53598;SDS011;39485;45.702;11.364;2022-12-01T15:30:37;0.32;;;0.32;;
53598;SDS011;39485;45.702;11.364;2022-12-01T15:33:52;0.10;;;0.10;;
53598;SDS011;39485;45.702;11.364;2022-12-01T15:35:58;1.00;;;1.00;;
53598;SDS011;39485;45.702;11.364;2022-12-01T15:38:28;1.05;;;0.93;;
53598;SDS011;39485;45.702;11.364;2022-12-01T15:41:02;0.22;;;0.22;;
53598;SDS011;39485;45.702;11.364;2022-12-01T15:43:32;0.10;;;0.10;;
53598;SDS011;39485;45.702;11.364;2022-12-01T15:46:12;0.55;;;0.55;;
53598;SDS011;39485;45.702;11.364;2022-12-01T15:48:40;0.93;;;0.40;;
53598;SDS011;39485;45.702;11.364;2022-12-01T15:51:08;0.98;;;0.90;;
53598;SDS011;39485;45.702;11.364;2022-12-01T15:53:45;2.28;;;1.38;;
53598;SDS011;39485;45.702;11.364;2022-12-01T15:56:34;1.92;;;0.80;;
53598;SDS011;39485;45.702;11.364;2022-12-01T16:01:36;0.40;;;0.40;;
53598;SDS011;39485;45.702;11.364;2022-12-01T16:04:04;2.50;;;0.88;;
53598;SDS011;39485;45.702;11.364;2022-12-01T16:06:38;0.70;;;0.70;;
53598;SDS011;39485;45.702;11.364;2022-12-01T16:09:05;1.63;;;0.75;;
53598;SDS011;39485;45.702;11.364;2022-12-01T16:14:28;8.57;;;0.83;;
53598;SDS011;39485;45.702;11.364;2022-12-01T16:16:55;0.95;;;0.95;;
53598;SDS011;39485;45.702;11.364;2022-12-01T16:19:23;0.70;;;0.70;;
53598;SDS011;39485;45.702;11.364;2022-12-01T16:21:55;1.45;;;1.10;;
53598;SDS011;39485;45.702;11.364;2022-12-01T16:24:43;0.73;;;0.73;;
53598;SDS011;39485;45.702;11.364;2022-12-01T16:29:50;1.52;;;1.23;;
53598;SDS011;39485;45.702;11.364;2022-12-01T16:34:57;1.48;;;1.33;;
53598;SDS011;39485;45.702;11.364;2022-12-01T16:37:23;2.15;;;1.92;;
53598;SDS011;39485;45.702;11.364;2022-12-01T16:39:48;1.05;;;1.02;;
53598;SDS011;39485;45.702;11.364;2022-12-01T16:42:15;3.40;;;1.95;;
53598;SDS011;39485;45.702;11.364;2022-12-01T16:44:43;2.08;;;1.58;;
53598;SDS011;39485;45.702;11.364;2022-12-01T16:47:15;0.95;;;0.93;;
53598;SDS011;39485;45.702;11.364;2022-12-01T16:49:43;1.83;;;1.52;;
53598;SDS011;39485;45.702;11.364;2022-12-01T16:52:08;3.05;;;1.85;;
53598;SDS011;39485;45.702;11.364;2022-12-01T16:54:35;1.42;;;1.20;;
53598;SDS011;39485;45.702;11.364;2022-12-01T16:57:00;0.80;;;0.80;;
53598;SDS011;39485;45.702;11.364;2022-12-01T16:59:26;1.42;;;1.33;;
53598;SDS011;39485;45.702;11.364;2022-12-01T17:01:52;1.60;;;1.02;;
53598;SDS011;39485;45.702;11.364;2022-12-01T17:04:17;1.05;;;1.05;;
53598;SDS011;39485;45.702;11.364;2022-12-01T17:06:43;1.00;;;0.93;;
53598;SDS011;39485;45.702;11.364;2022-12-01T17:09:09;5.22;;;1.52;;
53598;SDS011;39485;45.702;11.364;2022-12-01T17:11:34;1.85;;;1.55;;
53598;SDS011;39485;45.702;11.364;2022-12-01T17:14:00;4.35;;;1.60;;
53598;SDS011;39485;45.702;11.364;2022-12-01T17:16:25;1.40;;;1.38;;
53598;SDS011;39485;45.702;11.364;2022-12-01T17:18:51;8.02;;;1.42;;
53598;SDS011;39485;45.702;11.364;2022-12-01T17:21:17;5.18;;;3.72;;
53598;SDS011;39485;45.702;11.364;2022-12-01T17:23:43;3.33;;;1.92;;
53598;SDS011;39485;45.702;11.364;2022-12-01T17:26:10;3.55;;;2.63;;
53598;SDS011;39485;45.702;11.364;2022-12-01T17:28:37;2.88;;;2.08;;
53598;SDS011;39485;45.702;11.364;2022-12-01T17:31:03;2.08;;;1.05;;
53598;SDS011;39485;45.702;11.364;2022-12-01T17:33:29;3.88;;;1.83;;
53598;SDS011;39485;45.702;11.364;2022-12-01T17:35:58;3.00;;;2.60;;
53598;SDS011;39485;45.702;11.364;2022-12-01T17:38:28;2.05;;;1.08;;
53598;SDS011;39485;45.702;11.364;2022-12-01T17:40:58;0.90;;;0.88;;
53598;SDS011;39485;45.702;11.364;2022-12-01T17:43:34;1.35;;;1.30;;
53598;SDS011;39485;45.702;11.364;2022-12-01T17:46:02;1.08;;;1.08;;
53598;SDS011;39485;45.702;11.364;2022-12-01T17:48:33;2.22;;;1.05;;
53598;SDS011;39485;45.702;11.364;2022-12-01T17:51:00;0.80;;;0.80;;
53598;SDS011;39485;45.702;11.364;2022-12-01T17:53:26;2.20;;;1.60;;
53598;SDS011;39485;45.702;11.364;2022-12-01T17:55:52;3.13;;;1.17;;
53598;SDS011;39485;45.702;11.364;2022-12-01T17:58:17;3.95;;;2.03;;
53598;SDS011;39485;45.702;11.364;2022-12-01T18:00:46;2.35;;;1.98;;
53598;SDS011;39485;45.702;11.364;2022-12-01T18:03:12;1.67;;;1.60;;
53598;SDS011;39485;45.702;11.364;2022-12-01T18:05:38;3.63;;;1.65;;
53598;SDS011;39485;45.702;11.364;2022-12-01T18:08:04;0.85;;;0.85;;
53598;SDS011;39485;45.702;11.364;2022-12-01T18:10:29;1.13;;;1.13;;
53598;SDS011;39485;45.702;11.364;2022-12-01T18:12:55;0.88;;;0.63;;
53598;SDS011;39485;45.702;11.364;2022-12-01T18:15:21;1.50;;;1.40;;
53598;SDS011;39485;45.702;11.364;2022-12-01T18:17:49;2.85;;;2.63;;
53598;SDS011;39485;45.702;11.364;2022-12-01T18:20:15;3.53;;;3.22;;
53598;SDS011;39485;45.702;11.364;2022-12-01T18:22:42;1.38;;;1.02;;
53598;SDS011;39485;45.702;11.364;2022-12-01T18:25:07;1.98;;;0.93;;
53598;SDS011;39485;45.702;11.364;2022-12-01T18:27:33;2.17;;;1.80;;
53598;SDS011;39485;45.702;11.364;2022-12-01T18:29:59;0.68;;;0.68;;
53598;SDS011;39485;45.702;11.364;2022-12-01T18:32:24;1.77;;;1.15;;
53598;SDS011;39485;45.702;11.364;2022-12-01T18:34:50;0.73;;;0.73;;
53598;SDS011;39485;45.702;11.364;2022-12-01T18:37:16;1.65;;;1.42;;
53598;SDS011;39485;45.702;11.364;2022-12-01T18:39:41;0.77;;;0.77;;
53598;SDS011;39485;45.702;11.364;2022-12-01T18:42:07;1.20;;;1.20;;
53598;SDS011;39485;45.702;11.364;2022-12-01T18:44:33;2.05;;;1.88;;
53598;SDS011;39485;45.702;11.364;2022-12-01T18:46:58;6.63;;;1.98;;
53598;SDS011;39485;45.702;11.364;2022-12-01T18:49:26;4.95;;;1.98;;
53598;SDS011;39485;45.702;11.364;2022-12-01T18:51:52;1.02;;;1.02;;
53598;SDS011;39485;45.702;11.364;2022-12-01T18:54:17;2.83;;;2.63;;
53598;SDS011;39485;45.702;11.364;2022-12-01T18:56:43;4.45;;;2.47;;
53598;SDS011;39485;45.702;11.364;2022-12-01T18:59:09;0.70;;;0.70;;
53598;SDS011;39485;45.702;11.364;2022-12-01T19:01:36;1.52;;;0.77;;
53598;SDS011;39485;45.702;11.364;2022-12-01T19:04:04;3.20;;;1.85;;
53598;SDS011;39485;45.702;11.364;2022-12-01T19:06:31;0.80;;;0.80;;
53598;SDS011;39485;45.702;11.364;2022-12-01T19:08:59;4.13;;;2.45;;
53598;SDS011;39485;45.702;11.364;2022-12-01T19:11:26;1.30;;;1.17;;
53598;SDS011;39485;45.702;11.364;2022-12-01T19:13:53;2.55;;;2.35;;
53598;SDS011;39485;45.702;11.364;2022-12-01T19:16:19;3.65;;;1.67;;
53598;SDS011;39485;45.702;11.364;2022-12-01T19:18:45;1.58;;;1.48;;
53598;SDS011;39485;45.702;11.364;2022-12-01T19:21:13;1.13;;;1.13;;
53598;SDS011;39485;45.702;11.364;2022-12-01T19:23:40;1.83;;;1.70;;
53598;SDS011;39485;45.702;11.364;2022-12-01T19:26:09;1.20;;;1.20;;
53598;SDS011;39485;45.702;11.364;2022-12-01T19:28:36;2.85;;;1.52;;
53598;SDS011;39485;45.702;11.364;2022-12-01T19:31:06;2.85;;;2.67;;
53598;SDS011;39485;45.702;11.364;2022-12-01T19:33:33;0.93;;;0.93;;
53598;SDS011;39485;45.702;11.364;2022-12-01T19:36:05;1.38;;;1.15;;
53598;SDS011;39485;45.702;11.364;2022-12-01T19:38:33;1.47;;;1.37;;
53598;SDS011;39485;45.702;11.364;2022-12-01T19:40:59;0.68;;;0.68;;
53598;SDS011;39485;45.702;11.364;2022-12-01T19:43:25;1.05;;;1.05;;
53598;SDS011;39485;45.702;11.364;2022-12-01T19:45:50;1.15;;;0.88;;
53598;SDS011;39485;45.702;11.364;2022-12-01T19:48:16;1.60;;;0.63;;
53598;SDS011;39485;45.702;11.364;2022-12-01T19:50:41;0.25;;;0.25;;
53598;SDS011;39485;45.702;11.364;2022-12-01T19:53:07;0.63;;;0.63;;
53598;SDS011;39485;45.702;11.364;2022-12-01T19:55:34;0.68;;;0.65;;
53598;SDS011;39485;45.702;11.364;2022-12-01T19:58:01;1.00;;;0.70;;
53598;SDS011;39485;45.702;11.364;2022-12-01T21:50:11;1.30;;;1.17;;
53598;SDS011;39485;45.702;11.364;2022-12-01T21:52:48;0.77;;;0.75;;
53598;SDS011;39485;45.702;11.364;2022-12-01T22:05:38;2.38;;;1.08;;
53598;SDS011;39485;45.702;11.364;2022-12-01T22:08:25;0.40;;;0.40;;
53598;SDS011;39485;45.702;11.364;2022-12-01T22:11:15;0.73;;;0.73;;
53598;SDS011;39485;45.702;11.364;2022-12-01T22:19:24;1.33;;;1.23;;
53598;SDS011;39485;45.702;11.364;2022-12-01T22:21:59;0.20;;;0.20;;
53598;SDS011;39485;45.702;11.364;2022-12-01T22:29:33;0.80;;;0.75;;
53598;SDS011;39485;45.702;11.364;2022-12-01T22:34:39;24.80;;;1.35;;
53598;SDS011;39485;45.702;11.364;2022-12-01T22:37:11;0.80;;;0.80;;
53598;SDS011;39485;45.702;11.364;2022-12-01T22:39:43;0.77;;;0.77;;
53598;SDS011;39485;45.702;11.364;2022-12-01T22:42:12;0.43;;;0.43;;
53598;SDS011;39485;45.702;11.364;2022-12-01T22:44:42;3.97;;;1.10;;
53598;SDS011;39485;45.702;11.364;2022-12-01T22:47:09;11.23;;;1.13;;
53598;SDS011;39485;45.702;11.364;2022-12-01T22:49:42;0.60;;;0.60;;
53598;SDS011;39485;45.702;11.364;2022-12-01T22:59:57;0.22;;;0.22;;
53598;SDS011;39485;45.702;11.364;2022-12-01T23:02:36;1.17;;;0.65;;
53598;SDS011;39485;45.702;11.364;2022-12-01T23:05:44;0.20;;;0.20;;
53598;SDS011;39485;45.702;11.364;2022-12-01T23:07:53;0.47;;;0.47;;
53598;SDS011;39485;45.702;11.364;2022-12-01T23:10:20;0.30;;;0.30;;
53598;SDS011;39485;45.702;11.364;2022-12-01T23:12:53;0.20;;;0.20;;
53598;SDS011;39485;45.702;11.364;2022-12-01T23:23:18;0.25;;;0.25;;
53598;SDS011;39485;45.702;11.364;2022-12-01T23:25:46;0.10;;;0.10;;
53598;SDS011;39485;45.702;11.364;2022-12-01T23:28:14;0.20;;;0.20;;
53598;SDS011;39485;45.702;11.364;2022-12-01T23:30:40;0.15;;;0.15;;
53598;SDS011;39485;45.702;11.364;2022-12-01T23:35:57;0.25;;;0.25;;
53598;SDS011;39485;45.702;11.364;2022-12-01T23:38:42;0.30;;;0.20;;
53598;SDS011;39485;45.702;11.364;2022-12-01T23:44:02;0.10;;;0.10;;
53598;SDS011;39485;45.702;11.364;2022-12-01T23:46:33;0.10;;;0.10;;
53598;SDS011;39485;45.702;11.364;2022-12-01T23:49:00;0.10;;;0.10;;
53598;SDS011;39485;45.702;11.364;2022-12-01T23:51:29;0.10;;;0.10;;
53598;SDS011;39485;45.702;11.364;2022-12-01T23:53:57;0.10;;;0.10;;
53598;SDS011;39485;45.702;11.364;2022-12-01T23:56:26;0.10;;;0.10;;
53598;SDS011;39485;45.702;11.364;2022-12-01T23:58:54;0.00;;;0.00;;
